首页
METAR-TAF:

METAR-TAF

机场 :

可可比奇, 佛罗里达州, 美国

纬度: 28-14N, 经度: 080-36W, 海拔: 3米

当前天气观测

该预报发布于22分钟前的16:56 UTC
风速6节,风向
温度 28°C
湿度 79%
气压 1018 hPa
能見度: 16.1公里
少量云层高于10000英尺
少量云层高于12000英尺
散云层高于16000英尺
散云层高于19000英尺
多云层高于21000英尺

METAR: KCOF 051656Z AUTO 08006KT 10SM FEW100 FEW120 SCT160 SCT190 BKN210 28/24 A3006 RMK AO2 SLP184 T02840241

时间: 13:18 (17:18 UTC)

预报

该预报发布于7小时和7分钟前的10:11 UTC
预报有效从05日的 10点(UTC)到 06日的 16点(UTC)
风速6节,风向多变
能见度10公里或以上
散云层高于2000英尺
多云层高于6000英尺
阴天层高于10000英尺
附近有阵雨
成为
从 05日的 14点(UTC)到 05日的 15点(UTC)
风速9节,风向东南
能見度: 8000
多云层高于2000英尺
阴天层高于7000英尺
小阵雨
短暂存在
从 05日的 17点(UTC)到 05日的 22点(UTC)
风速15节,风向南转南东,有时为25节阵风
能見度: 4800
多云层高于1600英尺, 积雨云.
雷暴, 小雨
成为
从 06日的 00点(UTC)到 06日的 01点(UTC)
风速6节,风向多变
能見度: 9000
多云层高于1200英尺
阴天层高于14000英尺
小阵雨

TAF: KCOF 051011Z 0510/0616 VRB06KT 9999 VCSH SCT020 BKN060 OVC100 QNH2999INS BECMG 0514/0515 14009KT 8000 -SHRA BKN020 OVC070 QNH3001INS TEMPO 0517/0522 16015G25KT 4800 -TSRA BKN016CB BECMG 0600/0601 VRB06KT 9000 -SHRA BKN012 OVC140 QNH2998INS TX26/0517Z TN23/0510Z

超过4000个机场的气象观测和天气预报(METAR&TAF报告)。

可查询的气象台以黄色和红色小点在地图上表示。

将鼠标移到小点上方,可查看气象台名称。

然后点击查看天气观测和预报。

如需切换地图:点击带黑十字的绿色按钮放大地图;点击带横线的绿色按钮缩小地图;或者点击绿色箭头查看邻近地区的地图。


METAR-TAF: